sensor_id;sensor_type;location;lat;lon;timestamp;P1;durP1;ratioP1;P2;durP2;ratioP2
44668;SDS011;30384;54.730;9.494;2023-10-09T00:00:55;628.73;;;589.13;;
44668;SDS011;30384;54.730;9.494;2023-10-09T00:06:02;635.00;;;596.03;;
44668;SDS011;30384;54.730;9.494;2023-10-09T00:11:06;694.47;;;648.03;;
44668;SDS011;30384;54.730;9.494;2023-10-09T00:16:30;708.03;;;662.07;;
44668;SDS011;30384;54.730;9.494;2023-10-09T00:21:44;673.70;;;629.17;;
44668;SDS011;30384;54.730;9.494;2023-10-09T00:26:46;736.20;;;687.73;;
44668;SDS011;30384;54.730;9.494;2023-10-09T00:31:49;677.30;;;632.20;;
44668;SDS011;30384;54.730;9.494;2023-10-09T00:36:52;719.70;;;672.47;;
44668;SDS011;30384;54.730;9.494;2023-10-09T00:41:54;698.83;;;653.47;;
44668;SDS011;30384;54.730;9.494;2023-10-09T00:46:59;646.07;;;605.53;;
44668;SDS011;30384;54.730;9.494;2023-10-09T00:52:12;647.33;;;605.57;;
44668;SDS011;30384;54.730;9.494;2023-10-09T00:57:30;628.50;;;588.90;;
44668;SDS011;30384;54.730;9.494;2023-10-09T01:02:34;538.93;;;507.43;;
44668;SDS011;30384;54.730;9.494;2023-10-09T01:07:36;567.00;;;533.47;;
44668;SDS011;30384;54.730;9.494;2023-10-09T01:12:40;640.33;;;600.33;;
44668;SDS011;30384;54.730;9.494;2023-10-09T01:17:44;670.53;;;627.70;;
44668;SDS011;30384;54.730;9.494;2023-10-09T01:22:46;623.63;;;585.67;;
44668;SDS011;30384;54.730;9.494;2023-10-09T01:27:51;502.83;;;474.60;;
44668;SDS011;30384;54.730;9.494;2023-10-09T01:32:53;487.67;;;463.10;;
44668;SDS011;30384;54.730;9.494;2023-10-09T01:37:58;466.40;;;442.07;;
44668;SDS011;30384;54.730;9.494;2023-10-09T01:42:59;390.13;;;372.40;;
44668;SDS011;30384;54.730;9.494;2023-10-09T01:48:04;394.90;;;375.93;;
44668;SDS011;30384;54.730;9.494;2023-10-09T01:53:07;451.17;;;427.97;;
44668;SDS011;30384;54.730;9.494;2023-10-09T01:58:08;397.33;;;378.87;;
44668;SDS011;30384;54.730;9.494;2023-10-09T02:03:30;406.17;;;385.93;;
44668;SDS011;30384;54.730;9.494;2023-10-09T02:08:37;398.20;;;379.27;;
44668;SDS011;30384;54.730;9.494;2023-10-09T02:13:38;442.47;;;419.83;;
44668;SDS011;30384;54.730;9.494;2023-10-09T02:18:42;415.37;;;394.37;;
44668;SDS011;30384;54.730;9.494;2023-10-09T02:23:56;380.60;;;361.87;;
44668;SDS011;30384;54.730;9.494;2023-10-09T02:28:58;390.83;;;371.87;;
44668;SDS011;30384;54.730;9.494;2023-10-09T02:34:01;388.93;;;369.30;;
44668;SDS011;30384;54.730;9.494;2023-10-09T02:39:11;435.33;;;412.67;;
44668;SDS011;30384;54.730;9.494;2023-10-09T02:44:24;356.87;;;341.00;;
44668;SDS011;30384;54.730;9.494;2023-10-09T02:49:26;439.77;;;418.03;;
44668;SDS011;30384;54.730;9.494;2023-10-09T02:54:27;384.03;;;364.67;;
44668;SDS011;30384;54.730;9.494;2023-10-09T02:59:35;451.93;;;428.30;;
44668;SDS011;30384;54.730;9.494;2023-10-09T03:04:45;406.40;;;387.30;;
44668;SDS011;30384;54.730;9.494;2023-10-09T03:09:47;425.63;;;403.10;;
44668;SDS011;30384;54.730;9.494;2023-10-09T03:14:50;414.03;;;392.90;;
44668;SDS011;30384;54.730;9.494;2023-10-09T03:19:51;506.93;;;479.00;;
44668;SDS011;30384;54.730;9.494;2023-10-09T03:24:54;505.47;;;476.73;;
44668;SDS011;30384;54.730;9.494;2023-10-09T03:29:56;557.43;;;524.30;;
44668;SDS011;30384;54.730;9.494;2023-10-09T03:34:57;516.37;;;487.13;;
44668;SDS011;30384;54.730;9.494;2023-10-09T03:40:01;621.30;;;583.43;;
44668;SDS011;30384;54.730;9.494;2023-10-09T03:45:02;552.90;;;520.40;;
44668;SDS011;30384;54.730;9.494;2023-10-09T03:50:13;620.43;;;582.00;;
44668;SDS011;30384;54.730;9.494;2023-10-09T03:55:36;498.00;;;469.83;;
44668;SDS011;30384;54.730;9.494;2023-10-09T04:00:38;519.73;;;488.97;;
44668;SDS011;30384;54.730;9.494;2023-10-09T04:05:46;535.30;;;504.73;;
44668;SDS011;30384;54.730;9.494;2023-10-09T04:10:50;548.00;;;516.23;;
44668;SDS011;30384;54.730;9.494;2023-10-09T04:15:51;483.07;;;456.90;;
44668;SDS011;30384;54.730;9.494;2023-10-09T04:20:54;617.37;;;581.97;;
44668;SDS011;30384;54.730;9.494;2023-10-09T04:26:14;419.97;;;399.03;;
44668;SDS011;30384;54.730;9.494;2023-10-09T04:31:15;695.87;;;652.80;;
44668;SDS011;30384;54.730;9.494;2023-10-09T04:36:18;632.57;;;592.47;;
44668;SDS011;30384;54.730;9.494;2023-10-09T04:41:19;655.50;;;615.90;;
44668;SDS011;30384;54.730;9.494;2023-10-09T04:46:28;583.80;;;549.10;;
44668;SDS011;30384;54.730;9.494;2023-10-09T04:51:32;654.07;;;614.70;;
44668;SDS011;30384;54.730;9.494;2023-10-09T04:56:37;627.67;;;589.07;;
44668;SDS011;30384;54.730;9.494;2023-10-09T05:01:52;652.93;;;612.50;;
44668;SDS011;30384;54.730;9.494;2023-10-09T05:06:59;652.10;;;612.23;;
44668;SDS011;30384;54.730;9.494;2023-10-09T05:12:21;631.53;;;593.23;;
44668;SDS011;30384;54.730;9.494;2023-10-09T05:17:27;695.57;;;651.70;;
44668;SDS011;30384;54.730;9.494;2023-10-09T05:22:29;652.73;;;612.67;;
44668;SDS011;30384;54.730;9.494;2023-10-09T05:27:30;656.17;;;616.30;;
44668;SDS011;30384;54.730;9.494;2023-10-09T05:32:52;655.77;;;615.53;;
44668;SDS011;30384;54.730;9.494;2023-10-09T05:37:58;674.13;;;633.27;;
44668;SDS011;30384;54.730;9.494;2023-10-09T05:43:15;668.87;;;627.37;;
44668;SDS011;30384;54.730;9.494;2023-10-09T05:48:37;657.53;;;617.37;;
44668;SDS011;30384;54.730;9.494;2023-10-09T05:53:38;687.57;;;645.17;;
44668;SDS011;30384;54.730;9.494;2023-10-09T05:58:46;714.23;;;669.10;;
44668;SDS011;30384;54.730;9.494;2023-10-09T06:04:06;549.27;;;516.30;;
44668;SDS011;30384;54.730;9.494;2023-10-09T06:09:18;608.93;;;571.63;;
44668;SDS011;30384;54.730;9.494;2023-10-09T06:14:20;578.60;;;543.10;;
44668;SDS011;30384;54.730;9.494;2023-10-09T06:19:31;620.17;;;582.07;;
44668;SDS011;30384;54.730;9.494;2023-10-09T06:24:43;588.07;;;552.63;;
44668;SDS011;30384;54.730;9.494;2023-10-09T06:29:54;632.70;;;593.77;;
44668;SDS011;30384;54.730;9.494;2023-10-09T06:35:15;608.83;;;572.60;;
44668;SDS011;30384;54.730;9.494;2023-10-09T06:40:17;538.63;;;506.00;;
44668;SDS011;30384;54.730;9.494;2023-10-09T06:45:42;558.80;;;526.17;;
44668;SDS011;30384;54.730;9.494;2023-10-09T06:50:54;556.50;;;524.83;;
44668;SDS011;30384;54.730;9.494;2023-10-09T06:55:58;530.10;;;498.37;;
44668;SDS011;30384;54.730;9.494;2023-10-09T07:01:06;557.37;;;523.97;;
44668;SDS011;30384;54.730;9.494;2023-10-09T07:06:40;533.83;;;501.70;;
44668;SDS011;30384;54.730;9.494;2023-10-09T07:11:42;495.40;;;465.40;;
44668;SDS011;30384;54.730;9.494;2023-10-09T07:16:44;413.27;;;388.30;;
44668;SDS011;30384;54.730;9.494;2023-10-09T07:21:57;500.63;;;470.20;;
44668;SDS011;30384;54.730;9.494;2023-10-09T07:27:04;486.00;;;456.27;;
44668;SDS011;30384;54.730;9.494;2023-10-09T07:32:13;518.23;;;487.43;;
44668;SDS011;30384;54.730;9.494;2023-10-09T07:37:25;459.73;;;433.27;;
44668;SDS011;30384;54.730;9.494;2023-10-09T07:42:31;492.73;;;463.57;;
44668;SDS011;30384;54.730;9.494;2023-10-09T07:47:41;478.50;;;450.80;;
44668;SDS011;30384;54.730;9.494;2023-10-09T07:53:02;484.70;;;455.63;;
44668;SDS011;30384;54.730;9.494;2023-10-09T07:58:26;462.07;;;435.37;;
44668;SDS011;30384;54.730;9.494;2023-10-09T08:03:28;545.23;;;511.47;;
44668;SDS011;30384;54.730;9.494;2023-10-09T08:08:33;480.13;;;450.13;;
44668;SDS011;30384;54.730;9.494;2023-10-09T08:13:35;443.27;;;416.87;;
44668;SDS011;30384;54.730;9.494;2023-10-09T08:19:05;587.03;;;549.37;;
44668;SDS011;30384;54.730;9.494;2023-10-09T08:24:32;503.90;;;473.20;;
44668;SDS011;30384;54.730;9.494;2023-10-09T08:29:41;494.60;;;463.87;;
44668;SDS011;30384;54.730;9.494;2023-10-09T08:34:48;577.20;;;539.97;;
44668;SDS011;30384;54.730;9.494;2023-10-09T08:39:54;601.67;;;563.30;;
44668;SDS011;30384;54.730;9.494;2023-10-09T08:44:56;590.53;;;552.83;;
44668;SDS011;30384;54.730;9.494;2023-10-09T08:50:00;521.07;;;488.97;;
44668;SDS011;30384;54.730;9.494;2023-10-09T08:55:02;509.33;;;478.57;;
44668;SDS011;30384;54.730;9.494;2023-10-09T09:00:06;527.70;;;495.30;;
44668;SDS011;30384;54.730;9.494;2023-10-09T09:05:17;550.03;;;514.87;;
44668;SDS011;30384;54.730;9.494;2023-10-09T09:10:20;582.80;;;545.93;;
44668;SDS011;30384;54.730;9.494;2023-10-09T09:15:35;526.43;;;492.10;;
44668;SDS011;30384;54.730;9.494;2023-10-09T09:20:42;537.47;;;503.67;;
44668;SDS011;30384;54.730;9.494;2023-10-09T09:25:47;516.97;;;483.90;;
44668;SDS011;30384;54.730;9.494;2023-10-09T09:31:06;556.60;;;520.67;;
44668;SDS011;30384;54.730;9.494;2023-10-09T09:36:13;533.67;;;500.20;;
44668;SDS011;30384;54.730;9.494;2023-10-09T09:47:01;561.57;;;525.30;;
44668;SDS011;30384;54.730;9.494;2023-10-09T09:52:07;557.07;;;522.57;;
44668;SDS011;30384;54.730;9.494;2023-10-09T09:57:12;515.13;;;484.10;;
44668;SDS011;30384;54.730;9.494;2023-10-09T10:02:30;550.37;;;515.77;;
44668;SDS011;30384;54.730;9.494;2023-10-09T10:07:34;581.20;;;543.43;;
44668;SDS011;30384;54.730;9.494;2023-10-09T10:12:48;526.73;;;494.40;;
44668;SDS011;30384;54.730;9.494;2023-10-09T10:28:19;576.97;;;540.83;;
44668;SDS011;30384;54.730;9.494;2023-10-09T10:38:59;519.60;;;487.90;;
44668;SDS011;30384;54.730;9.494;2023-10-09T10:44:33;545.73;;;511.00;;
44668;SDS011;30384;54.730;9.494;2023-10-09T10:49:36;581.57;;;544.97;;
44668;SDS011;30384;54.730;9.494;2023-10-09T10:54:38;574.83;;;538.23;;
44668;SDS011;30384;54.730;9.494;2023-10-09T10:59:40;588.60;;;550.57;;
44668;SDS011;30384;54.730;9.494;2023-10-09T11:04:45;593.10;;;554.07;;
44668;SDS011;30384;54.730;9.494;2023-10-09T11:09:57;560.83;;;524.80;;
44668;SDS011;30384;54.730;9.494;2023-10-09T11:15:05;563.03;;;527.20;;
44668;SDS011;30384;54.730;9.494;2023-10-09T11:20:09;576.17;;;539.70;;
44668;SDS011;30384;54.730;9.494;2023-10-09T11:25:32;578.30;;;542.03;;
44668;SDS011;30384;54.730;9.494;2023-10-09T11:30:34;615.50;;;575.17;;
44668;SDS011;30384;54.730;9.494;2023-10-09T11:35:36;587.87;;;549.27;;
44668;SDS011;30384;54.730;9.494;2023-10-09T11:40:38;593.37;;;554.23;;
44668;SDS011;30384;54.730;9.494;2023-10-09T11:46:09;570.00;;;533.33;;
44668;SDS011;30384;54.730;9.494;2023-10-09T11:51:34;610.67;;;571.27;;
44668;SDS011;30384;54.730;9.494;2023-10-09T11:56:48;577.20;;;541.37;;
44668;SDS011;30384;54.730;9.494;2023-10-09T12:01:49;616.37;;;576.57;;
44668;SDS011;30384;54.730;9.494;2023-10-09T12:06:53;586.13;;;549.43;;
44668;SDS011;30384;54.730;9.494;2023-10-09T12:12:07;561.70;;;525.20;;
44668;SDS011;30384;54.730;9.494;2023-10-09T12:17:11;584.93;;;547.40;;
44668;SDS011;30384;54.730;9.494;2023-10-09T12:22:13;588.23;;;549.80;;
44668;SDS011;30384;54.730;9.494;2023-10-09T12:27:16;625.57;;;583.87;;
44668;SDS011;30384;54.730;9.494;2023-10-09T12:32:20;561.90;;;526.73;;
44668;SDS011;30384;54.730;9.494;2023-10-09T12:37:23;591.10;;;552.87;;
44668;SDS011;30384;54.730;9.494;2023-10-09T12:42:29;592.27;;;553.80;;
44668;SDS011;30384;54.730;9.494;2023-10-09T12:47:33;619.17;;;578.27;;
44668;SDS011;30384;54.730;9.494;2023-10-09T12:52:37;593.07;;;555.13;;
44668;SDS011;30384;54.730;9.494;2023-10-09T12:57:39;577.80;;;541.47;;
44668;SDS011;30384;54.730;9.494;2023-10-09T13:02:40;600.53;;;562.93;;
44668;SDS011;30384;54.730;9.494;2023-10-09T13:07:45;612.17;;;573.30;;
44668;SDS011;30384;54.730;9.494;2023-10-09T13:12:46;529.70;;;497.90;;
44668;SDS011;30384;54.730;9.494;2023-10-09T13:17:55;566.07;;;531.27;;
44668;SDS011;30384;54.730;9.494;2023-10-09T13:22:58;557.53;;;521.97;;
44668;SDS011;30384;54.730;9.494;2023-10-09T13:27:59;598.63;;;562.13;;
44668;SDS011;30384;54.730;9.494;2023-10-09T13:33:03;591.50;;;554.73;;
44668;SDS011;30384;54.730;9.494;2023-10-09T13:38:06;602.17;;;564.23;;
44668;SDS011;30384;54.730;9.494;2023-10-09T13:43:10;577.37;;;541.77;;
44668;SDS011;30384;54.730;9.494;2023-10-09T13:48:17;616.60;;;576.20;;
44668;SDS011;30384;54.730;9.494;2023-10-09T13:53:18;594.17;;;556.13;;
44668;SDS011;30384;54.730;9.494;2023-10-09T13:58:20;593.90;;;557.00;;
44668;SDS011;30384;54.730;9.494;2023-10-09T14:03:21;579.63;;;543.03;;
44668;SDS011;30384;54.730;9.494;2023-10-09T14:08:24;570.60;;;533.83;;
44668;SDS011;30384;54.730;9.494;2023-10-09T14:13:29;583.57;;;546.30;;
44668;SDS011;30384;54.730;9.494;2023-10-09T14:18:31;539.03;;;504.70;;
44668;SDS011;30384;54.730;9.494;2023-10-09T14:23:32;561.87;;;526.73;;
44668;SDS011;30384;54.730;9.494;2023-10-09T14:28:35;570.83;;;535.03;;
44668;SDS011;30384;54.730;9.494;2023-10-09T14:33:38;554.53;;;519.30;;
44668;SDS011;30384;54.730;9.494;2023-10-09T14:38:41;544.83;;;510.80;;
44668;SDS011;30384;54.730;9.494;2023-10-09T14:43:42;573.27;;;537.70;;
44668;SDS011;30384;54.730;9.494;2023-10-09T14:48:44;586.23;;;548.97;;
44668;SDS011;30384;54.730;9.494;2023-10-09T14:53:46;592.77;;;554.70;;
44668;SDS011;30384;54.730;9.494;2023-10-09T14:58:49;564.00;;;531.27;;
44668;SDS011;30384;54.730;9.494;2023-10-09T15:03:51;610.37;;;571.80;;
44668;SDS011;30384;54.730;9.494;2023-10-09T15:09:02;590.53;;;553.50;;
44668;SDS011;30384;54.730;9.494;2023-10-09T15:14:09;561.73;;;526.23;;
44668;SDS011;30384;54.730;9.494;2023-10-09T15:19:11;562.37;;;526.53;;
44668;SDS011;30384;54.730;9.494;2023-10-09T15:24:14;582.67;;;545.40;;
44668;SDS011;30384;54.730;9.494;2023-10-09T15:29:16;618.00;;;580.27;;
44668;SDS011;30384;54.730;9.494;2023-10-09T15:34:20;603.57;;;566.63;;
44668;SDS011;30384;54.730;9.494;2023-10-09T15:39:22;549.90;;;513.67;;
44668;SDS011;30384;54.730;9.494;2023-10-09T15:44:24;561.27;;;526.20;;
44668;SDS011;30384;54.730;9.494;2023-10-09T15:49:26;586.20;;;549.37;;
44668;SDS011;30384;54.730;9.494;2023-10-09T15:54:28;580.23;;;543.73;;
44668;SDS011;30384;54.730;9.494;2023-10-09T15:59:29;579.13;;;543.00;;
44668;SDS011;30384;54.730;9.494;2023-10-09T16:04:33;554.60;;;520.27;;
44668;SDS011;30384;54.730;9.494;2023-10-09T16:09:34;540.57;;;508.90;;
44668;SDS011;30384;54.730;9.494;2023-10-09T16:14:39;589.63;;;551.30;;
44668;SDS011;30384;54.730;9.494;2023-10-09T16:19:41;578.63;;;542.40;;
44668;SDS011;30384;54.730;9.494;2023-10-09T16:24:43;533.47;;;498.97;;
44668;SDS011;30384;54.730;9.494;2023-10-09T16:29:45;543.13;;;510.33;;
44668;SDS011;30384;54.730;9.494;2023-10-09T16:34:51;558.60;;;523.50;;
44668;SDS011;30384;54.730;9.494;2023-10-09T16:39:53;600.73;;;561.77;;
44668;SDS011;30384;54.730;9.494;2023-10-09T16:44:55;555.23;;;519.70;;
44668;SDS011;30384;54.730;9.494;2023-10-09T16:49:56;582.63;;;546.43;;
44668;SDS011;30384;54.730;9.494;2023-10-09T16:54:58;597.77;;;558.33;;
44668;SDS011;30384;54.730;9.494;2023-10-09T17:00:00;580.90;;;544.30;;
44668;SDS011;30384;54.730;9.494;2023-10-09T17:05:01;596.70;;;559.00;;
44668;SDS011;30384;54.730;9.494;2023-10-09T17:10:05;550.70;;;515.33;;
44668;SDS011;30384;54.730;9.494;2023-10-09T17:15:15;515.07;;;482.67;;
44668;SDS011;30384;54.730;9.494;2023-10-09T17:20:17;545.60;;;509.80;;
44668;SDS011;30384;54.730;9.494;2023-10-09T17:25:19;558.13;;;522.73;;
44668;SDS011;30384;54.730;9.494;2023-10-09T17:30:20;597.97;;;559.47;;
44668;SDS011;30384;54.730;9.494;2023-10-09T17:35:22;565.47;;;530.13;;
44668;SDS011;30384;54.730;9.494;2023-10-09T17:40:23;559.87;;;523.80;;
44668;SDS011;30384;54.730;9.494;2023-10-09T17:45:28;575.27;;;538.27;;
44668;SDS011;30384;54.730;9.494;2023-10-09T17:50:35;606.47;;;568.07;;
44668;SDS011;30384;54.730;9.494;2023-10-09T17:55:37;591.77;;;554.90;;
44668;SDS011;30384;54.730;9.494;2023-10-09T18:00:40;583.60;;;545.77;;
44668;SDS011;30384;54.730;9.494;2023-10-09T18:05:41;589.33;;;552.47;;
44668;SDS011;30384;54.730;9.494;2023-10-09T18:10:43;615.77;;;574.73;;
44668;SDS011;30384;54.730;9.494;2023-10-09T18:15:45;564.33;;;528.33;;
44668;SDS011;30384;54.730;9.494;2023-10-09T18:20:47;590.60;;;552.77;;
44668;SDS011;30384;54.730;9.494;2023-10-09T18:25:56;585.63;;;547.73;;
44668;SDS011;30384;54.730;9.494;2023-10-09T18:30:58;593.73;;;554.13;;
44668;SDS011;30384;54.730;9.494;2023-10-09T18:36:06;604.50;;;565.17;;
44668;SDS011;30384;54.730;9.494;2023-10-09T18:41:08;586.30;;;550.67;;
44668;SDS011;30384;54.730;9.494;2023-10-09T18:46:11;555.10;;;521.43;;
44668;SDS011;30384;54.730;9.494;2023-10-09T18:51:13;564.43;;;529.60;;
44668;SDS011;30384;54.730;9.494;2023-10-09T18:56:17;605.73;;;568.23;;
44668;SDS011;30384;54.730;9.494;2023-10-09T19:01:23;564.30;;;529.50;;
44668;SDS011;30384;54.730;9.494;2023-10-09T19:06:24;625.73;;;586.20;;
44668;SDS011;30384;54.730;9.494;2023-10-09T19:11:29;611.67;;;572.93;;
44668;SDS011;30384;54.730;9.494;2023-10-09T19:16:32;611.07;;;572.33;;
44668;SDS011;30384;54.730;9.494;2023-10-09T19:21:34;607.63;;;569.10;;
44668;SDS011;30384;54.730;9.494;2023-10-09T19:26:36;616.00;;;576.30;;
44668;SDS011;30384;54.730;9.494;2023-10-09T19:31:37;611.77;;;572.57;;
44668;SDS011;30384;54.730;9.494;2023-10-09T19:36:39;601.33;;;563.60;;
44668;SDS011;30384;54.730;9.494;2023-10-09T19:41:43;594.17;;;557.30;;
44668;SDS011;30384;54.730;9.494;2023-10-09T19:46:44;611.30;;;572.27;;
44668;SDS011;30384;54.730;9.494;2023-10-09T19:51:46;564.80;;;530.97;;
44668;SDS011;30384;54.730;9.494;2023-10-09T19:56:49;608.53;;;570.10;;
44668;SDS011;30384;54.730;9.494;2023-10-09T20:01:52;589.60;;;552.57;;
44668;SDS011;30384;54.730;9.494;2023-10-09T20:06:53;608.40;;;569.43;;
44668;SDS011;30384;54.730;9.494;2023-10-09T20:11:56;633.73;;;592.23;;
44668;SDS011;30384;54.730;9.494;2023-10-09T20:16:58;580.17;;;543.57;;
44668;SDS011;30384;54.730;9.494;2023-10-09T20:21:59;610.73;;;572.00;;
44668;SDS011;30384;54.730;9.494;2023-10-09T20:27:01;576.10;;;540.33;;
44668;SDS011;30384;54.730;9.494;2023-10-09T20:32:04;570.37;;;535.23;;
44668;SDS011;30384;54.730;9.494;2023-10-09T20:37:08;587.13;;;548.30;;
44668;SDS011;30384;54.730;9.494;2023-10-09T20:42:10;640.30;;;596.70;;
44668;SDS011;30384;54.730;9.494;2023-10-09T20:47:12;593.30;;;556.50;;
44668;SDS011;30384;54.730;9.494;2023-10-09T20:52:13;582.07;;;545.47;;
44668;SDS011;30384;54.730;9.494;2023-10-09T20:57:15;568.27;;;533.60;;
44668;SDS011;30384;54.730;9.494;2023-10-09T21:02:16;589.83;;;550.40;;
44668;SDS011;30384;54.730;9.494;2023-10-09T21:07:20;609.10;;;570.80;;
44668;SDS011;30384;54.730;9.494;2023-10-09T21:12:22;578.33;;;542.50;;
44668;SDS011;30384;54.730;9.494;2023-10-09T21:17:24;571.87;;;535.63;;
44668;SDS011;30384;54.730;9.494;2023-10-09T21:22:26;598.23;;;560.63;;
44668;SDS011;30384;54.730;9.494;2023-10-09T21:27:30;655.90;;;612.60;;
44668;SDS011;30384;54.730;9.494;2023-10-09T21:32:31;611.10;;;571.93;;
44668;SDS011;30384;54.730;9.494;2023-10-09T21:37:39;577.07;;;542.63;;
44668;SDS011;30384;54.730;9.494;2023-10-09T21:42:44;608.53;;;568.67;;
44668;SDS011;30384;54.730;9.494;2023-10-09T21:47:46;588.93;;;552.53;;
44668;SDS011;30384;54.730;9.494;2023-10-09T21:52:48;557.00;;;523.27;;
44668;SDS011;30384;54.730;9.494;2023-10-09T21:57:50;619.17;;;578.87;;
44668;SDS011;30384;54.730;9.494;2023-10-09T22:02:53;634.17;;;592.43;;
44668;SDS011;30384;54.730;9.494;2023-10-09T22:07:56;572.40;;;537.60;;
44668;SDS011;30384;54.730;9.494;2023-10-09T22:12:58;596.73;;;557.23;;
44668;SDS011;30384;54.730;9.494;2023-10-09T22:18:00;609.67;;;572.10;;
44668;SDS011;30384;54.730;9.494;2023-10-09T22:23:09;626.03;;;584.93;;
44668;SDS011;30384;54.730;9.494;2023-10-09T22:28:14;609.57;;;569.87;;
44668;SDS011;30384;54.730;9.494;2023-10-09T22:33:15;617.00;;;577.30;;
44668;SDS011;30384;54.730;9.494;2023-10-09T22:38:20;598.50;;;560.07;;
44668;SDS011;30384;54.730;9.494;2023-10-09T22:43:24;586.93;;;548.90;;
44668;SDS011;30384;54.730;9.494;2023-10-09T22:48:26;568.23;;;531.50;;
44668;SDS011;30384;54.730;9.494;2023-10-09T22:53:28;566.33;;;528.77;;
44668;SDS011;30384;54.730;9.494;2023-10-09T22:58:39;573.33;;;537.97;;
44668;SDS011;30384;54.730;9.494;2023-10-09T23:03:54;582.40;;;542.80;;
44668;SDS011;30384;54.730;9.494;2023-10-09T23:09:14;594.67;;;554.97;;
44668;SDS011;30384;54.730;9.494;2023-10-09T23:14:16;603.03;;;563.87;;
44668;SDS011;30384;54.730;9.494;2023-10-09T23:19:27;604.63;;;564.17;;
44668;SDS011;30384;54.730;9.494;2023-10-09T23:24:32;595.63;;;556.40;;
44668;SDS011;30384;54.730;9.494;2023-10-09T23:29:35;601.37;;;561.00;;
44668;SDS011;30384;54.730;9.494;2023-10-09T23:34:36;610.23;;;568.43;;
44668;SDS011;30384;54.730;9.494;2023-10-09T23:39:45;573.77;;;536.60;;
44668;SDS011;30384;54.730;9.494;2023-10-09T23:44:56;628.10;;;586.77;;
44668;SDS011;30384;54.730;9.494;2023-10-09T23:50:05;583.13;;;545.77;;
44668;SDS011;30384;54.730;9.494;2023-10-09T23:55:16;616.10;;;574.60;;
